Time;durP1;ratioP1;P1;durP2;ratioP2;P2;SDS_P1;SDS_P2;PMS_P1;PMS_P2;Temp;Humidity;BMP_temperature;BMP_pressure;BME280_temperature;BME280_humidity;BME280_pressure;Samples;Min_cycle;Max_cycle;Signal;HPM_P1;HPM_P2
2023/12/10 00:01:15;;;;;;;21.73;2.67;;;;;;;4.39;65.04;99199.88;5009974;28;20037;-73
2023/12/10 00:03:40;;;;;;;20.95;2.05;;;;;;;4.71;64.41;99196.88;5011844;28;20038;-73
2023/12/10 00:06:06;;;;;;;13.70;2.13;;;;;;;4.56;65.25;99206.09;4991891;28;20912;-73
2023/12/10 00:08:32;;;;;;;13.98;1.70;;;;;;;4.44;65.21;99210.03;5012381;28;20042;-73
2023/12/10 00:10:57;;;;;;;15.80;1.65;;;;;;;4.10;65.69;99221.75;4993254;28;20032;-73
2023/12/10 00:13:23;;;;;;;22.90;1.88;;;;;;;4.12;65.80;99216.50;4997410;28;20041;-74
2023/12/10 00:15:50;;;;;;;23.40;2.30;;;;;;;4.48;65.26;99218.53;4996133;28;20063;-73
2023/12/10 00:18:15;;;;;;;16.60;2.53;;;;;;;4.44;65.06;99225.56;5009781;28;20159;-73
2023/12/10 00:20:41;;;;;;;22.58;1.90;;;;;;;4.30;65.60;99226.13;5011753;28;20036;-73
2023/12/10 00:23:11;;;;;;;12.15;2.55;;;;;;;4.51;65.05;99228.75;4993929;28;20492;-73
2023/12/10 00:25:37;;;;;;;13.60;2.47;;;;;;;4.37;65.06;99229.31;4993837;28;20029;-69
2023/12/10 00:28:03;;;;;;;12.50;3.10;;;;;;;4.68;63.84;99234.06;5009293;28;20049;-68
2023/12/10 00:30:28;;;;;;;25.08;3.63;;;;;;;4.68;64.12;99223.72;5012385;28;20048;-68
2023/12/10 00:32:54;;;;;;;21.58;3.20;;;;;;;4.54;63.78;99231.19;5014123;28;20741;-69
2023/12/10 00:35:19;;;;;;;11.38;1.80;;;;;;;4.56;63.65;99237.16;5006438;28;20072;-68
2023/12/10 00:37:45;;;;;;;20.00;3.15;;;;;;;4.55;63.85;99248.41;5010253;28;20860;-68
2023/12/10 00:40:11;;;;;;;18.35;2.42;;;;;;;4.48;63.90;99247.00;4993173;28;20030;-70
2023/12/10 00:42:36;;;;;;;16.45;2.13;;;;;;;4.34;63.98;99253.56;5008909;28;20109;-69
2023/12/10 00:45:02;;;;;;;16.83;2.50;;;;;;;4.55;63.80;99251.00;5007975;28;20040;-71
2023/12/10 00:47:27;;;;;;;20.77;2.08;;;;;;;4.80;62.88;99259.44;5024759;28;20120;-72
2023/12/10 00:49:53;;;;;;;15.68;2.05;;;;;;;4.49;63.65;99270.19;5011568;28;20072;-66
2023/12/10 00:52:18;;;;;;;17.98;2.55;;;;;;;4.67;63.34;99271.19;5007700;28;20804;-72
2023/12/10 00:54:44;;;;;;;16.33;1.73;;;;;;;4.93;62.32;99267.56;5012695;28;20184;-67
2023/12/10 00:57:12;;;;;;;16.10;1.80;;;;;;;4.79;63.02;99270.69;5023039;28;20037;-71
2023/12/10 00:59:37;;;;;;;13.98;2.38;;;;;;;4.41;63.86;99273.09;5010696;28;20671;-69
2023/12/10 01:02:03;;;;;;;22.55;2.30;;;;;;;4.94;62.14;99276.16;5008718;28;20049;-69
2023/12/10 01:04:28;;;;;;;19.48;1.48;;;;;;;4.87;62.52;99280.72;5010503;28;20050;-69
2023/12/10 01:06:54;;;;;;;14.38;1.75;;;;;;;4.74;62.76;99285.56;5010522;28;20385;-71
2023/12/10 01:09:20;;;;;;;17.23;2.20;;;;;;;4.30;63.65;99292.53;5008514;28;21566;-71
2023/12/10 01:11:45;;;;;;;18.13;2.78;;;;;;;4.55;62.47;99300.16;5011350;28;20057;-68
2023/12/10 01:14:11;;;;;;;18.48;2.00;;;;;;;4.64;62.25;99304.97;5006885;28;20069;-71
2023/12/10 01:16:37;;;;;;;15.88;1.50;;;;;;;4.82;61.51;99303.38;4991980;28;20480;-71
2023/12/10 01:19:02;;;;;;;28.90;3.38;;;;;;;4.32;62.05;99303.66;5006950;28;20037;-68
2023/12/10 01:21:28;;;;;;;20.90;3.15;;;;;;;4.12;62.63;99297.53;5009536;28;20037;-70
2023/12/10 01:23:56;;;;;;;23.60;1.98;;;;;;;4.59;61.45;99296.56;5009467;28;20772;-71
2023/12/10 01:26:22;;;;;;;17.08;2.20;;;;;;;4.84;60.14;99307.59;5006633;28;20076;-68
2023/12/10 01:28:48;;;;;;;15.65;2.13;;;;;;;4.54;61.54;99314.00;5008882;28;20045;-69
2023/12/10 01:31:13;;;;;;;19.70;2.80;;;;;;;4.51;61.11;99317.53;5008672;28;20038;-67
2023/12/10 01:33:40;;;;;;;13.32;2.13;;;;;;;4.78;60.35;99313.00;5008546;28;20049;-67
2023/12/10 01:36:06;;;;;;;21.67;2.50;;;;;;;4.71;60.78;99321.94;5006814;28;20076;-68
2023/12/10 01:38:32;;;;;;;24.35;2.45;;;;;;;4.16;61.63;99313.75;5010255;28;20663;-70
2023/12/10 01:40:58;;;;;;;15.15;1.30;;;;;;;4.78;60.52;99323.34;5010234;28;20033;-71
2023/12/10 01:43:23;;;;;;;17.83;1.23;;;;;;;4.70;60.16;99320.25;4991640;28;20048;-71
2023/12/10 01:45:53;;;;;;;23.63;2.25;;;;;;;4.63;60.91;99327.44;5009823;28;20108;-71
2023/12/10 01:48:20;;;;;;;8.38;1.08;;;;;;;4.84;60.40;99328.28;5008132;28;20901;-71
2023/12/10 01:50:46;;;;;;;19.70;2.10;;;;;;;4.73;60.29;99329.63;5009989;28;20104;-72
2023/12/10 01:53:12;;;;;;;19.02;1.88;;;;;;;4.94;59.85;99339.13;5007361;28;20447;-68
2023/12/10 01:55:38;;;;;;;13.13;1.52;;;;;;;4.64;60.43;99342.03;5008198;28;20026;-65
2023/12/10 01:58:04;;;;;;;17.17;2.35;;;;;;;4.37;61.30;99338.78;5008010;28;20572;-66
2023/12/10 02:00:30;;;;;;;15.80;2.03;;;;;;;4.41;60.58;99342.94;5009289;28;20057;-68
2023/12/10 02:02:56;;;;;;;16.67;2.03;;;;;;;4.67;60.34;99346.25;4999936;28;20045;-69
2023/12/10 02:05:23;;;;;;;16.05;2.60;;;;;;;4.15;61.25;99338.75;5006167;28;20552;-69
2023/12/10 02:07:49;;;;;;;17.73;2.03;;;;;;;4.82;59.12;99340.44;5006296;28;20044;-69
2023/12/10 02:10:15;;;;;;;25.73;2.42;;;;;;;4.55;59.50;99357.94;5005085;28;20029;-69
2023/12/10 02:12:41;;;;;;;22.80;2.50;;;;;;;4.29;60.68;99352.91;5008997;28;20033;-69
2023/12/10 02:15:16;;;;;;;29.55;2.80;;;;;;;4.80;59.61;99362.97;4998029;28;20124;-69
2023/12/10 02:17:42;;;;;;;22.48;3.10;;;;;;;4.46;60.61;99362.63;5007642;28;20034;-71
2023/12/10 02:20:12;;;;;;;11.57;2.08;;;;;;;4.98;58.35;99358.81;5013195;28;20087;-68
2023/12/10 02:22:52;;;;;;;18.35;2.53;;;;;;;4.57;59.45;99356.13;5005900;28;20041;-68
2023/12/10 02:25:35;;;;;;;14.98;1.77;;;;;;;4.58;59.74;99362.13;5004242;28;20029;-67
2023/12/10 02:28:02;;;;;;;13.43;1.77;;;;;;;4.68;59.12;99368.66;5008288;28;20558;-67
2023/12/10 02:30:28;;;;;;;20.33;1.90;;;;;;;4.40;60.25;99364.53;5004728;28;20048;-67
2023/12/10 02:32:53;;;;;;;18.35;2.80;;;;;;;3.83;61.79;99365.81;5009269;28;20030;-67
2023/12/10 02:35:19;;;;;;;16.25;1.13;;;;;;;4.45;60.54;99371.28;5007272;28;20037;-71
2023/12/10 02:37:44;;;;;;;10.27;2.83;;;;;;;4.28;61.16;99377.13;5008221;28;20658;-70
2023/12/10 02:40:11;;;;;;;11.95;1.98;;;;;;;4.33;61.14;99365.66;5008360;28;20017;-67
2023/12/10 02:42:36;;;;;;;16.67;2.00;;;;;;;4.30;61.28;99370.97;5009252;28;20040;-72
2023/12/10 02:45:02;;;;;;;13.45;1.77;;;;;;;4.20;61.88;99364.44;4997915;28;20029;-69
2023/12/10 02:47:28;;;;;;;20.63;3.05;;;;;;;4.42;61.57;99367.06;5005943;28;20041;-71
2023/12/10 02:49:53;;;;;;;11.65;1.23;;;;;;;4.30;61.60;99357.22;5009574;28;20068;-71
2023/12/10 02:52:20;;;;;;;12.90;1.30;;;;;;;4.39;61.72;99362.84;5006765;28;20039;-72
2023/12/10 02:54:46;;;;;;;25.88;2.63;;;;;;;4.46;61.50;99360.03;5007795;28;20034;-71
2023/12/10 02:57:11;;;;;;;13.95;1.50;;;;;;;4.22;62.34;99354.91;5003625;28;20025;-71
2023/12/10 02:59:37;;;;;;;17.05;2.00;;;;;;;4.00;63.71;99354.84;5009088;28;20041;-69
2023/12/10 03:02:02;;;;;;;10.05;2.08;;;;;;;4.08;62.94;99359.75;5008135;28;20040;-69
2023/12/10 03:04:28;;;;;;;16.02;1.95;;;;;;;4.26;62.36;99364.22;5004662;28;20040;-73
2023/12/10 03:06:53;;;;;;;19.77;2.75;;;;;;;3.87;64.19;99357.03;5008818;28;20749;-71
2023/12/10 03:09:18;;;;;;;17.02;1.88;;;;;;;3.73;64.94;99348.94;5005353;28;20639;-70
2023/12/10 03:11:44;;;;;;;15.32;1.42;;;;;;;3.49;64.86;99348.06;5009938;28;20573;-70
2023/12/10 03:14:09;;;;;;;23.20;1.95;;;;;;;3.52;64.82;99348.81;4993717;28;20040;-69
2023/12/10 03:16:35;;;;;;;10.75;1.50;;;;;;;3.60;64.89;99345.94;5009938;28;20037;-70
2023/12/10 03:19:00;;;;;;;9.35;1.58;;;;;;;3.88;64.21;99352.72;4988303;28;20057;-70
2023/12/10 03:21:26;;;;;;;8.40;0.82;;;;;;;3.88;64.01;99345.81;5006693;28;20036;-70
2023/12/10 03:23:51;;;;;;;16.65;0.95;;;;;;;3.97;63.67;99350.66;5007894;28;20416;-73
2023/12/10 03:26:17;;;;;;;17.95;2.38;;;;;;;3.55;64.88;99343.53;5006304;28;20692;-73
2023/12/10 03:28:42;;;;;;;13.88;2.25;;;;;;;3.64;64.93;99347.53;5009349;28;20496;-73
2023/12/10 03:31:08;;;;;;;10.13;1.45;;;;;;;4.04;63.62;99335.75;4990880;28;20030;-72
2023/12/10 03:33:34;;;;;;;8.38;0.70;;;;;;;4.04;63.52;99342.66;5004414;28;20052;-74
2023/12/10 03:36:00;;;;;;;13.18;1.75;;;;;;;3.76;65.02;99341.06;5010070;28;20118;-71
2023/12/10 03:38:26;;;;;;;9.77;0.88;;;;;;;3.91;64.06;99339.69;5009320;28;20067;-71
2023/12/10 03:40:51;;;;;;;13.00;1.38;;;;;;;4.05;63.88;99341.75;5010420;28;20416;-66
2023/12/10 03:43:17;;;;;;;9.98;0.95;;;;;;;4.33;63.61;99338.97;5009987;28;20056;-64
2023/12/10 03:45:42;;;;;;;9.68;1.30;;;;;;;3.89;65.23;99337.16;5010799;28;20028;-67
2023/12/10 03:48:08;;;;;;;13.55;0.80;;;;;;;4.19;63.71;99324.81;5010588;28;20412;-66
2023/12/10 03:50:33;;;;;;;7.78;1.05;;;;;;;3.71;65.25;99324.91;5009457;28;20128;-66
2023/12/10 03:52:59;;;;;;;8.18;0.95;;;;;;;3.77;65.56;99315.19;5010557;28;20068;-65
2023/12/10 03:55:24;;;;;;;10.55;1.48;;;;;;;4.08;64.43;99323.56;5009591;28;20132;-66
2023/12/10 03:57:50;;;;;;;13.10;1.67;;;;;;;3.76;65.52;99323.00;5005704;28;20100;-69
2023/12/10 04:00:16;;;;;;;14.38;2.00;;;;;;;3.70;65.45;99315.47;5025402;28;20053;-67
2023/12/10 04:02:42;;;;;;;11.30;1.45;;;;;;;3.50;66.79;99323.94;5012162;28;20033;-69
2023/12/10 04:05:11;;;;;;;8.60;1.52;;;;;;;3.57;65.97;99321.06;5012788;28;20672;-66
2023/12/10 04:07:38;;;;;;;15.35;1.40;;;;;;;4.08;64.57;99324.41;5025283;28;20029;-67
2023/12/10 04:10:04;;;;;;;8.98;1.17;;;;;;;3.45;66.19;99325.81;5012349;28;20158;-67
2023/12/10 04:12:30;;;;;;;13.10;1.40;;;;;;;3.36;66.45;99311.53;5008025;28;20504;-66
2023/12/10 04:14:56;;;;;;;13.93;1.77;;;;;;;3.63;66.24;99321.75;5011354;28;20051;-67
2023/12/10 04:17:22;;;;;;;12.30;1.00;;;;;;;3.36;66.86;99321.84;5022143;28;20025;-66
2023/12/10 04:19:47;;;;;;;11.20;0.43;;;;;;;3.75;65.57;99318.72;5012206;28;20130;-66
2023/12/10 04:22:13;;;;;;;9.90;0.73;;;;;;;3.52;66.66;99317.81;5003674;28;20151;-67
2023/12/10 04:24:39;;;;;;;7.30;0.73;;;;;;;3.64;65.22;99315.69;5013055;28;20407;-69
2023/12/10 04:27:04;;;;;;;15.73;1.40;;;;;;;3.78;65.61;99318.59;5010113;28;20037;-67
2023/12/10 04:29:30;;;;;;;13.93;1.30;;;;;;;3.91;65.22;99319.00;5006919;28;20061;-65
2023/12/10 04:31:55;;;;;;;25.52;1.75;;;;;;;4.00;64.55;99324.66;5012322;28;20404;-64
2023/12/10 04:34:20;;;;;;;9.45;1.63;;;;;;;4.16;63.87;99326.66;5007958;28;20041;-65
2023/12/10 04:36:46;;;;;;;9.25;1.45;;;;;;;3.53;66.13;99319.50;5010985;28;20069;-66
2023/12/10 04:39:12;;;;;;;4.65;0.75;;;;;;;4.00;64.71;99316.91;5009418;28;20048;-68
2023/12/10 04:41:37;;;;;;;3.30;0.55;;;;;;;3.68;66.02;99312.09;5024508;28;20701;-68
2023/12/10 04:44:03;;;;;;;14.93;2.13;;;;;;;3.73;65.98;99307.59;5009615;28;20124;-68
2023/12/10 04:46:28;;;;;;;17.75;2.58;;;;;;;4.07;65.18;99308.94;5007795;28;20615;-66
2023/12/10 04:48:54;;;;;;;10.60;1.42;;;;;;;3.58;66.36;99314.16;5009148;28;20499;-66
2023/12/10 04:51:21;;;;;;;13.15;1.80;;;;;;;3.67;66.61;99320.75;5009861;28;20504;-69
2023/12/10 04:53:47;;;;;;;8.02;1.25;;;;;;;3.78;66.32;99310.84;4999799;28;20120;-68
2023/12/10 04:56:12;;;;;;;11.07;1.23;;;;;;;3.79;66.15;99304.81;5011445;28;20125;-70
2023/12/10 04:58:37;;;;;;;9.40;1.50;;;;;;;3.31;68.40;99303.06;5008419;28;20428;-70
2023/12/10 05:01:03;;;;;;;10.65;1.40;;;;;;;3.41;66.89;99307.03;5008800;28;20124;-70
2023/12/10 05:03:29;;;;;;;6.82;1.15;;;;;;;2.98;68.15;99298.16;5008578;28;20068;-70
2023/12/10 05:05:55;;;;;;;11.15;0.90;;;;;;;4.01;65.89;99292.75;5008187;28;20558;-70
2023/12/10 05:08:20;;;;;;;7.63;1.02;;;;;;;3.38;68.23;99297.66;5005092;28;20055;-72
2023/12/10 05:10:46;;;;;;;7.35;0.73;;;;;;;3.79;66.07;99304.81;5012134;28;20045;-72
2023/12/10 05:13:11;;;;;;;5.97;0.90;;;;;;;4.06;65.41;99289.16;5009529;28;20038;-66
2023/12/10 05:15:37;;;;;;;7.70;0.82;;;;;;;4.13;65.26;99293.19;5006500;28;20124;-66
2023/12/10 05:18:02;;;;;;;5.97;1.00;;;;;;;3.20;68.29;99300.81;5008651;28;20538;-67
2023/12/10 05:20:28;;;;;;;6.10;0.30;;;;;;;3.78;66.00;99297.94;5008975;28;20026;-67
2023/12/10 05:22:54;;;;;;;10.07;1.23;;;;;;;3.79;66.12;99294.47;5009528;28;20025;-67
2023/12/10 05:25:19;;;;;;;5.05;0.85;;;;;;;3.80;66.61;99303.88;5007273;28;20576;-68
2023/12/10 05:27:45;;;;;;;4.75;0.98;;;;;;;3.41;67.98;99301.88;5008115;28;20660;-69
2023/12/10 05:30:11;;;;;;;4.28;1.00;;;;;;;3.81;66.82;99308.19;5010855;28;20033;-70
2023/12/10 05:32:37;;;;;;;5.75;0.63;;;;;;;4.00;66.19;99298.81;5006881;28;21622;-69
2023/12/10 05:35:03;;;;;;;9.65;0.93;;;;;;;3.52;67.37;99296.31;4993234;28;20025;-68
2023/12/10 05:37:28;;;;;;;3.97;0.50;;;;;;;4.16;65.69;99293.91;5004463;28;20049;-69
2023/12/10 05:39:54;;;;;;;4.95;1.05;;;;;;;3.76;66.47;99286.81;5006607;28;20109;-67
2023/12/10 05:42:20;;;;;;;1.77;0.20;;;;;;;3.74;67.26;99289.47;5004936;28;20582;-67
2023/12/10 05:44:45;;;;;;;8.18;0.93;;;;;;;3.94;65.76;99287.84;5012044;28;20640;-67
2023/12/10 05:47:10;;;;;;;5.85;0.30;;;;;;;4.32;64.77;99285.53;4991189;28;20034;-67
2023/12/10 05:49:36;;;;;;;4.95;0.20;;;;;;;3.87;66.19;99292.41;5006971;28;20052;-67
2023/12/10 05:52:01;;;;;;;3.42;0.25;;;;;;;3.51;67.23;99290.28;4992805;28;20064;-67
2023/12/10 05:54:27;;;;;;;5.15;0.20;;;;;;;3.82;67.02;99294.34;5010735;28;20128;-67
2023/12/10 05:56:52;;;;;;;7.28;0.55;;;;;;;3.76;66.76;99289.38;5009026;28;20037;-66
2023/12/10 05:59:18;;;;;;;1.27;0.22;;;;;;;3.86;66.93;99289.91;5006396;28;20103;-66
2023/12/10 06:01:43;;;;;;;4.55;0.22;;;;;;;4.14;66.38;99287.97;4999227;28;20041;-67
2023/12/10 06:04:09;;;;;;;4.00;0.30;;;;;;;3.96;66.26;99286.94;4990931;28;20033;-72
2023/12/10 06:06:35;;;;;;;1.80;0.13;;;;;;;3.79;66.49;99291.88;5005275;28;20729;-68
2023/12/10 06:09:00;;;;;;;1.70;0.20;;;;;;;4.00;65.89;99288.47;5006604;28;20037;-69
2023/12/10 06:11:26;;;;;;;0.57;0.15;;;;;;;4.30;65.58;99295.97;5006426;28;20030;-68
2023/12/10 06:13:51;;;;;;;1.73;0.47;;;;;;;3.80;67.40;99289.22;5008493;28;20063;-68
2023/12/10 06:16:17;;;;;;;6.32;0.17;;;;;;;4.28;65.75;99292.59;5006610;28;20033;-69
2023/12/10 06:18:42;;;;;;;2.13;0.13;;;;;;;3.73;67.74;99294.69;5005127;28;20411;-68
2023/12/10 06:21:08;;;;;;;1.17;0.10;;;;;;;3.84;67.45;99292.53;5008243;28;20313;-68
2023/12/10 06:23:33;;;;;;;2.80;0.20;;;;;;;3.74;68.13;99293.81;5005185;28;20041;-66
2023/12/10 06:25:59;;;;;;;4.28;0.20;;;;;;;3.42;68.39;99294.94;5007799;28;20045;-68
2023/12/10 06:28:24;;;;;;;2.15;0.20;;;;;;;4.05;66.83;99300.38;4980471;28;20055;-69
2023/12/10 06:30:50;;;;;;;1.02;0.10;;;;;;;4.29;66.08;99298.59;5008392;28;20487;-69
2023/12/10 06:33:15;;;;;;;2.70;0.32;;;;;;;4.34;66.21;99307.88;5008259;28;20042;-66
2023/12/10 06:35:41;;;;;;;3.80;0.40;;;;;;;4.13;66.33;99300.94;5004952;28;20033;-66
2023/12/10 06:38:07;;;;;;;1.45;0.28;;;;;;;3.96;67.70;99302.44;5007563;28;20483;-66
2023/12/10 06:40:33;;;;;;;2.10;0.10;;;;;;;3.88;66.93;99309.63;5006309;28;20041;-67
2023/12/10 06:42:59;;;;;;;3.70;0.32;;;;;;;4.35;66.06;99306.97;5009697;28;20496;-68
2023/12/10 06:45:25;;;;;;;2.78;0.10;;;;;;;3.59;68.49;99303.78;4995836;28;21676;-66
2023/12/10 06:47:52;;;;;;;3.40;0.50;;;;;;;4.21;67.55;99301.50;5022867;28;20069;-68
2023/12/10 06:50:17;;;;;;;1.30;0.32;;;;;;;4.16;66.77;99305.97;5007597;28;20068;-67
2023/12/10 06:52:43;;;;;;;0.98;0.10;;;;;;;4.09;67.62;99322.66;5003253;28;20049;-65
2023/12/10 06:55:09;;;;;;;2.80;0.10;;;;;;;4.11;67.67;99326.84;5006940;28;20029;-66
2023/12/10 06:57:34;;;;;;;2.05;0.20;;;;;;;3.82;68.59;99322.78;5002172;28;20132;-68
2023/12/10 07:00:00;;;;;;;3.13;0.30;;;;;;;4.34;66.90;99328.56;5007472;28;20032;-69
2023/12/10 07:02:26;;;;;;;5.18;0.52;;;;;;;4.36;66.06;99326.78;5002403;28;20025;-67
2023/12/10 07:04:51;;;;;;;1.42;0.30;;;;;;;4.29;67.20;99337.41;5008382;28;20192;-68
2023/12/10 07:07:17;;;;;;;0.98;0.13;;;;;;;4.05;67.23;99346.91;4991225;28;20717;-74
2023/12/10 07:09:42;;;;;;;3.45;0.20;;;;;;;4.30;67.47;99347.69;4988955;28;20301;-73
2023/12/10 07:12:08;;;;;;;0.32;0.05;;;;;;;4.33;67.02;99355.31;5009055;28;20161;-72
2023/12/10 07:14:33;;;;;;;5.30;0.20;;;;;;;4.41;66.94;99361.06;5006817;28;20041;-71
2023/12/10 07:16:59;;;;;;;2.50;0.20;;;;;;;4.32;67.00;99371.75;4991615;28;20484;-68
2023/12/10 07:19:25;;;;;;;1.25;0.25;;;;;;;4.65;65.96;99368.75;5001884;28;20044;-72
2023/12/10 07:21:52;;;;;;;1.52;0.08;;;;;;;4.54;66.65;99376.09;4996609;28;20068;-71
2023/12/10 07:24:21;;;;;;;4.53;0.20;;;;;;;4.31;67.09;99376.97;4994877;28;20041;-70
2023/12/10 07:26:47;;;;;;;2.22;0.20;;;;;;;4.66;65.86;99382.56;5001962;28;20095;-69
2023/12/10 07:29:13;;;;;;;1.20;0.25;;;;;;;4.61;65.95;99393.09;5007298;28;20119;-73
2023/12/10 07:31:39;;;;;;;2.38;0.13;;;;;;;4.15;67.45;99389.66;5006427;28;20658;-72
2023/12/10 07:34:04;;;;;;;3.42;0.10;;;;;;;4.38;66.83;99394.78;5007465;28;20103;-68
2023/12/10 07:36:30;;;;;;;4.07;0.13;;;;;;;4.76;65.97;99397.63;5005167;28;21670;-69
2023/12/10 07:38:55;;;;;;;0.35;0.25;;;;;;;4.55;66.12;99411.44;5008924;28;20045;-69
2023/12/10 07:41:21;;;;;;;0.85;0.10;;;;;;;4.67;66.12;99408.34;4991380;28;20506;-70
2023/12/10 07:43:47;;;;;;;7.82;0.75;;;;;;;4.94;65.01;99419.41;4980220;28;20038;-66
2023/12/10 07:46:13;;;;;;;2.25;0.20;;;;;;;4.76;65.61;99428.69;5003810;28;20041;-69
2023/12/10 07:48:38;;;;;;;3.95;0.40;;;;;;;4.56;66.53;99436.41;5003289;28;20044;-68
2023/12/10 07:51:04;;;;;;;6.32;0.70;;;;;;;4.71;66.40;99445.31;5008974;28;20319;-67
2023/12/10 07:53:30;;;;;;;11.02;1.00;;;;;;;4.57;66.70;99451.88;5018945;28;20045;-68
2023/12/10 07:55:55;;;;;;;16.33;0.95;;;;;;;4.87;65.82;99450.75;5007696;28;20107;-71
2023/12/10 07:58:22;;;;;;;9.90;1.60;;;;;;;4.80;66.21;99465.69;5007034;28;20045;-72
2023/12/10 08:00:48;;;;;;;17.42;1.55;;;;;;;4.80;66.32;99471.69;5004881;28;20056;-72
2023/12/10 08:03:14;;;;;;;15.27;1.70;;;;;;;4.47;67.28;99478.97;5009724;28;20041;-71
2023/12/10 08:05:40;;;;;;;14.75;1.85;;;;;;;4.57;66.67;99490.69;5006577;28;20682;-69
2023/12/10 08:08:06;;;;;;;21.13;2.72;;;;;;;4.53;67.12;99498.63;5007340;28;20042;-69
2023/12/10 08:10:32;;;;;;;19.85;1.88;;;;;;;4.79;66.14;99506.25;5006321;28;20029;-70
2023/12/10 08:12:58;;;;;;;20.25;2.78;;;;;;;4.51;67.16;99510.78;5006872;28;20458;-70
2023/12/10 08:15:25;;;;;;;17.33;1.33;;;;;;;4.67;66.34;99506.72;5008799;28;20522;-66
2023/12/10 08:17:52;;;;;;;19.70;1.77;;;;;;;4.29;67.65;99524.47;5002623;28;20060;-72
2023/12/10 08:20:17;;;;;;;13.82;1.48;;;;;;;4.56;66.82;99524.38;5014499;28;20045;-66
2023/12/10 08:22:43;;;;;;;5.70;0.80;;;;;;;4.96;65.59;99534.13;5005991;28;20045;-68
2023/12/10 08:25:15;;;;;;;16.65;1.88;;;;;;;4.82;66.40;99539.78;5012216;28;20136;-65
2023/12/10 08:27:40;;;;;;;;;;;;;;;4.86;65.81;99540.53;5002939;28;20759;-66
2023/12/10 08:30:06;;;;;;;8.93;1.20;;;;;;;4.88;65.91;99537.91;5012697;28;19913;-65
2023/12/10 08:32:33;;;;;;;11.25;1.08;;;;;;;4.71;66.38;99554.88;5006916;28;20037;-66
2023/12/10 08:34:58;;;;;;;17.50;1.92;;;;;;;4.93;65.83;99554.13;4992302;28;20030;-65
2023/12/10 08:37:24;;;;;;;7.85;1.25;;;;;;;5.06;65.44;99560.53;5009617;28;20040;-65
2023/12/10 08:39:49;;;;;;;16.95;2.53;;;;;;;4.56;67.09;99570.94;5007175;28;20468;-64
2023/12/10 08:42:15;;;;;;;17.15;1.30;;;;;;;4.59;67.13;99581.22;5010458;28;20086;-64
2023/12/10 08:44:41;;;;;;;27.35;2.30;;;;;;;4.46;67.52;99587.72;5002229;28;20389;-66
2023/12/10 08:47:06;;;;;;;17.48;1.30;;;;;;;4.66;67.28;99603.38;5015496;28;20069;-65
2023/12/10 08:49:31;;;;;;;14.05;1.95;;;;;;;4.90;66.25;99608.59;4999687;28;20069;-64
2023/12/10 08:51:57;;;;;;;18.25;3.15;;;;;;;4.90;66.53;99624.13;5011558;28;20029;-65
2023/12/10 08:54:22;;;;;;;22.63;2.70;;;;;;;4.60;67.58;99629.47;5005932;28;20725;-65
2023/12/10 08:56:48;;;;;;;13.43;1.33;;;;;;;4.51;67.19;99630.63;5005878;28;20075;-65
2023/12/10 08:59:14;;;;;;;9.07;1.25;;;;;;;5.32;64.88;99644.16;5009910;28;20963;-66
2023/12/10 09:01:39;;;;;;;14.68;1.02;;;;;;;4.99;65.98;99647.13;5004492;28;20159;-66
2023/12/10 09:04:05;;;;;;;14.70;1.25;;;;;;;5.05;65.63;99652.06;5008859;28;20041;-67
2023/12/10 09:06:32;;;;;;;9.68;1.52;;;;;;;5.49;64.10;99657.31;5004715;28;20056;-66
2023/12/10 09:08:57;;;;;;;15.65;1.15;;;;;;;4.80;66.67;99668.44;5009191;28;20045;-66
2023/12/10 09:11:23;;;;;;;19.58;2.47;;;;;;;4.74;67.14;99684.19;5007404;28;20032;-65
2023/12/10 09:13:49;;;;;;;7.05;1.00;;;;;;;4.63;67.36;99681.13;5008124;28;20033;-66
2023/12/10 09:16:17;;;;;;;5.07;0.60;;;;;;;4.57;67.63;99689.13;5007711;28;20492;-65
2023/12/10 09:18:43;;;;;;;10.10;1.52;;;;;;;5.03;65.82;99701.34;5003446;28;20043;-67
2023/12/10 09:21:09;;;;;;;8.88;1.17;;;;;;;5.18;65.76;99704.25;5011497;28;20037;-63
2023/12/10 09:23:34;;;;;;;6.13;2.10;;;;;;;4.94;65.98;99712.00;4998859;28;20079;-66
2023/12/10 09:26:00;;;;;;;14.90;1.05;;;;;;;4.96;66.04;99714.53;5005747;28;20033;-66
2023/12/10 09:28:26;;;;;;;12.07;1.85;;;;;;;4.88;66.65;99722.59;5001630;28;20747;-66
2023/12/10 09:30:51;;;;;;;13.10;0.98;;;;;;;5.07;65.68;99721.94;5003125;28;22404;-65
2023/12/10 09:33:17;;;;;;;5.82;0.73;;;;;;;5.45;64.80;99738.69;4999626;28;20049;-66
2023/12/10 09:35:42;;;;;;;12.10;1.02;;;;;;;5.21;65.24;99745.59;4998798;28;20103;-65
2023/12/10 09:38:08;;;;;;;10.38;1.50;;;;;;;5.09;65.33;99757.25;4986634;28;20038;-65
2023/12/10 09:40:34;;;;;;;22.25;1.35;;;;;;;5.22;65.06;99755.91;5004922;28;20668;-65
2023/12/10 09:43:01;;;;;;;9.68;2.30;;;;;;;5.08;65.67;99765.91;5000952;28;20045;-65
2023/12/10 09:45:27;;;;;;;18.35;1.85;;;;;;;5.60;64.06;99760.59;4998444;28;20130;-65
2023/12/10 09:47:53;;;;;;;19.38;2.67;;;;;;;5.45;64.22;99759.41;5004821;28;20053;-65
2023/12/10 09:50:20;;;;;;;18.63;1.48;;;;;;;5.33;64.66;99765.88;5002709;28;20052;-64
2023/12/10 09:52:46;;;;;;;14.00;1.73;;;;;;;5.44;64.21;99762.91;4997579;28;20155;-65
2023/12/10 09:55:11;;;;;;;13.57;1.65;;;;;;;5.51;63.79;99768.72;5000725;28;20036;-65
2023/12/10 09:57:38;;;;;;;11.13;1.92;;;;;;;5.44;63.26;99778.47;4995958;28;20557;-65
2023/12/10 10:00:06;;;;;;;13.63;1.67;;;;;;;5.40;63.52;99782.06;4992662;28;22913;-65
2023/12/10 10:02:34;;;;;;;11.10;1.98;;;;;;;5.42;63.12;99783.69;5001949;28;20051;-65
2023/12/10 10:05:02;;;;;;;17.60;1.70;;;;;;;5.09;63.60;99787.47;4964111;28;20041;-66
2023/12/10 10:07:29;;;;;;;9.38;1.75;;;;;;;5.35;62.91;99789.16;5000754;28;20539;-63
2023/12/10 10:09:55;;;;;;;12.48;2.72;;;;;;;5.45;62.63;99788.75;4996022;28;20634;-65
2023/12/10 10:12:20;;;;;;;22.40;1.85;;;;;;;5.33;62.76;99798.75;5002370;28;20029;-64
2023/12/10 10:14:56;;;;;;;16.60;1.42;;;;;;;5.15;63.91;99803.66;4994071;28;20091;-65
2023/12/10 10:17:32;;;;;;;14.68;1.65;;;;;;;5.02;64.20;99802.38;5000750;28;20037;-64
2023/12/10 10:19:58;;;;;;;21.17;2.08;;;;;;;4.98;64.18;99813.75;4985306;28;20565;-65
2023/12/10 10:22:25;;;;;;;20.05;2.28;;;;;;;5.09;64.28;99813.38;5000508;28;20812;-65
2023/12/10 10:24:52;;;;;;;14.13;1.27;;;;;;;5.27;63.73;99815.31;4994447;28;20053;-65
2023/12/10 10:27:18;;;;;;;20.67;1.92;;;;;;;5.48;63.10;99818.06;4999167;28;20961;-65
2023/12/10 10:29:44;;;;;;;23.52;2.22;;;;;;;5.36;63.56;99824.53;4995372;28;20045;-65
2023/12/10 10:32:16;;;;;;;19.17;2.00;;;;;;;5.31;64.09;99819.50;5001648;28;20029;-64
2023/12/10 10:34:46;;;;;;;11.77;2.70;;;;;;;4.56;66.52;99837.50;4996954;28;20053;-65
2023/12/10 10:37:12;;;;;;;17.88;2.30;;;;;;;5.40;64.95;99845.09;5002108;28;20029;-65
2023/12/10 10:39:38;;;;;;;15.77;2.17;;;;;;;5.32;65.32;99851.44;4998763;28;20050;-65
2023/12/10 10:42:08;;;;;;;13.02;1.88;;;;;;;4.84;66.34;99861.63;4978995;28;20057;-64
2023/12/10 10:44:37;;;;;;;17.10;2.78;;;;;;;5.32;64.82;99874.75;4982523;28;20048;-64
2023/12/10 10:47:05;;;;;;;13.00;1.48;;;;;;;5.54;64.00;99869.69;5005266;28;20843;-65
2023/12/10 10:49:33;;;;;;;11.40;1.45;;;;;;;4.45;66.32;99878.38;4995825;28;20041;-65
2023/12/10 10:52:02;;;;;;;10.95;0.73;;;;;;;5.12;64.99;99889.22;4997285;28;21326;-65
2023/12/10 10:54:28;;;;;;;9.32;1.30;;;;;;;4.68;66.17;99891.47;4979624;28;20033;-65
2023/12/10 10:56:54;;;;;;;16.17;1.38;;;;;;;5.12;64.87;99901.34;4995374;28;20035;-65
2023/12/10 10:59:30;;;;;;;12.68;0.85;;;;;;;4.90;65.63;99896.00;4994456;28;20091;-64
2023/12/10 11:02:10;;;;;;;10.20;1.63;;;;;;;5.05;65.36;99906.72;5002016;28;20043;-64
2023/12/10 11:04:39;;;;;;;12.45;2.15;;;;;;;5.01;65.69;99899.09;4999142;28;20115;-66
2023/12/10 11:07:07;;;;;;;9.20;1.05;;;;;;;4.89;66.14;99902.09;4992664;28;20033;-65
2023/12/10 11:09:53;;;;;;;13.93;0.82;;;;;;;4.94;65.69;99907.94;5005853;28;20045;-66
2023/12/10 11:12:49;;;;;;;8.27;0.90;;;;;;;5.01;65.76;99909.44;5005105;28;20483;-65
2023/12/10 11:15:15;;;;;;;17.50;1.35;;;;;;;4.98;65.10;99909.56;4990978;28;20683;-65
2023/12/10 11:17:50;;;;;;;8.00;0.90;;;;;;;4.88;65.72;99915.91;4999382;28;20025;-64
2023/12/10 11:20:43;;;;;;;6.32;0.75;;;;;;;4.70;66.76;99920.75;5003967;28;20037;-66
2023/12/10 11:23:13;;;;;;;7.85;0.57;;;;;;;4.64;66.73;99908.00;5005552;28;20034;-65
2023/12/10 11:25:40;;;;;;;9.90;0.68;;;;;;;4.98;66.16;99909.56;5002368;28;20033;-64
2023/12/10 11:28:15;;;;;;;10.00;1.00;;;;;;;4.39;67.93;99921.69;5001323;28;20683;-64
2023/12/10 11:30:42;;;;;;;11.10;0.38;;;;;;;4.53;67.45;99928.19;5002348;28;20038;-65
2023/12/10 11:33:09;;;;;;;6.70;0.82;;;;;;;4.88;66.38;99923.69;5005649;28;20056;-65